sensor_id;sensor_type;location;lat;lon;timestamp;P1;durP1;ratioP1;P2;durP2;ratioP2
71637;SDS011;59485;43.542;-5.676;2023-04-25T00:01:22;13.50;;;5.90;;
71637;SDS011;59485;43.542;-5.676;2023-04-25T00:03:48;13.93;;;5.80;;
71637;SDS011;59485;43.542;-5.676;2023-04-25T00:06:13;10.50;;;5.37;;
71637;SDS011;59485;43.542;-5.676;2023-04-25T00:08:42;12.07;;;5.25;;
71637;SDS011;59485;43.542;-5.676;2023-04-25T00:11:08;11.57;;;5.50;;
71637;SDS011;59485;43.542;-5.676;2023-04-25T00:13:34;11.80;;;5.10;;
71637;SDS011;59485;43.542;-5.676;2023-04-25T00:16:00;12.57;;;5.10;;
71637;SDS011;59485;43.542;-5.676;2023-04-25T00:18:27;13.98;;;5.43;;
71637;SDS011;59485;43.542;-5.676;2023-04-25T00:20:58;12.73;;;6.10;;
71637;SDS011;59485;43.542;-5.676;2023-04-25T00:23:23;14.87;;;7.80;;
71637;SDS011;59485;43.542;-5.676;2023-04-25T00:25:49;12.65;;;7.07;;
71637;SDS011;59485;43.542;-5.676;2023-04-25T00:28:15;16.03;;;6.70;;
71637;SDS011;59485;43.542;-5.676;2023-04-25T00:30:42;20.33;;;7.65;;
71637;SDS011;59485;43.542;-5.676;2023-04-25T00:33:08;14.90;;;7.43;;
71637;SDS011;59485;43.542;-5.676;2023-04-25T00:35:33;14.85;;;7.43;;
71637;SDS011;59485;43.542;-5.676;2023-04-25T00:37:59;14.60;;;6.97;;
71637;SDS011;59485;43.542;-5.676;2023-04-25T00:40:25;16.05;;;7.55;;
71637;SDS011;59485;43.542;-5.676;2023-04-25T00:42:51;15.07;;;6.87;;
71637;SDS011;59485;43.542;-5.676;2023-04-25T00:45:17;13.82;;;6.75;;
71637;SDS011;59485;43.542;-5.676;2023-04-25T00:47:46;13.50;;;6.18;;
71637;SDS011;59485;43.542;-5.676;2023-04-25T00:50:12;15.70;;;6.57;;
71637;SDS011;59485;43.542;-5.676;2023-04-25T00:52:40;13.50;;;6.10;;
71637;SDS011;59485;43.542;-5.676;2023-04-25T00:55:08;15.25;;;6.07;;
71637;SDS011;59485;43.542;-5.676;2023-04-25T00:57:34;11.70;;;6.55;;
71637;SDS011;59485;43.542;-5.676;2023-04-25T00:59:59;11.33;;;5.87;;
71637;SDS011;59485;43.542;-5.676;2023-04-25T01:02:25;13.30;;;5.85;;
71637;SDS011;59485;43.542;-5.676;2023-04-25T01:04:52;11.82;;;6.75;;
71637;SDS011;59485;43.542;-5.676;2023-04-25T01:07:18;12.75;;;6.72;;
71637;SDS011;59485;43.542;-5.676;2023-04-25T01:09:45;13.00;;;6.25;;
71637;SDS011;59485;43.542;-5.676;2023-04-25T01:12:11;12.90;;;6.30;;
71637;SDS011;59485;43.542;-5.676;2023-04-25T01:14:37;11.20;;;5.68;;
71637;SDS011;59485;43.542;-5.676;2023-04-25T01:17:03;12.38;;;6.35;;
71637;SDS011;59485;43.542;-5.676;2023-04-25T01:19:28;11.17;;;5.80;;
71637;SDS011;59485;43.542;-5.676;2023-04-25T01:21:54;11.60;;;6.45;;
71637;SDS011;59485;43.542;-5.676;2023-04-25T01:24:20;12.18;;;6.55;;
71637;SDS011;59485;43.542;-5.676;2023-04-25T01:26:46;13.27;;;6.43;;
71637;SDS011;59485;43.542;-5.676;2023-04-25T01:29:15;16.77;;;7.68;;
71637;SDS011;59485;43.542;-5.676;2023-04-25T01:31:44;13.70;;;7.75;;
71637;SDS011;59485;43.542;-5.676;2023-04-25T01:34:11;13.83;;;7.00;;
71637;SDS011;59485;43.542;-5.676;2023-04-25T01:36:36;12.17;;;7.03;;
71637;SDS011;59485;43.542;-5.676;2023-04-25T01:39:02;16.17;;;8.50;;
71637;SDS011;59485;43.542;-5.676;2023-04-25T01:41:28;14.40;;;8.00;;
71637;SDS011;59485;43.542;-5.676;2023-04-25T01:43:54;15.00;;;7.75;;
71637;SDS011;59485;43.542;-5.676;2023-04-25T01:46:20;14.57;;;7.28;;
71637;SDS011;59485;43.542;-5.676;2023-04-25T01:48:45;14.03;;;7.23;;
71637;SDS011;59485;43.542;-5.676;2023-04-25T01:51:12;14.88;;;7.57;;
71637;SDS011;59485;43.542;-5.676;2023-04-25T01:53:38;14.07;;;7.20;;
71637;SDS011;59485;43.542;-5.676;2023-04-25T01:56:04;14.75;;;7.20;;
71637;SDS011;59485;43.542;-5.676;2023-04-25T01:58:30;17.73;;;7.43;;
71637;SDS011;59485;43.542;-5.676;2023-04-25T02:00:56;15.55;;;7.50;;
71637;SDS011;59485;43.542;-5.676;2023-04-25T02:03:21;14.80;;;7.67;;
71637;SDS011;59485;43.542;-5.676;2023-04-25T02:05:47;15.95;;;7.97;;
71637;SDS011;59485;43.542;-5.676;2023-04-25T02:08:13;19.87;;;8.00;;
71637;SDS011;59485;43.542;-5.676;2023-04-25T02:10:38;20.38;;;9.80;;
71637;SDS011;59485;43.542;-5.676;2023-04-25T02:13:04;17.87;;;8.37;;
71637;SDS011;59485;43.542;-5.676;2023-04-25T02:15:30;21.40;;;8.23;;
71637;SDS011;59485;43.542;-5.676;2023-04-25T02:17:56;19.60;;;7.90;;
71637;SDS011;59485;43.542;-5.676;2023-04-25T02:20:21;17.70;;;7.97;;
71637;SDS011;59485;43.542;-5.676;2023-04-25T02:22:48;17.50;;;7.63;;
71637;SDS011;59485;43.542;-5.676;2023-04-25T02:25:14;15.45;;;7.30;;
71637;SDS011;59485;43.542;-5.676;2023-04-25T02:27:41;17.58;;;7.93;;
71637;SDS011;59485;43.542;-5.676;2023-04-25T02:30:07;19.73;;;7.97;;
71637;SDS011;59485;43.542;-5.676;2023-04-25T02:32:32;18.93;;;7.97;;
71637;SDS011;59485;43.542;-5.676;2023-04-25T02:34:59;16.75;;;7.10;;
71637;SDS011;59485;43.542;-5.676;2023-04-25T02:37:31;16.35;;;7.15;;
71637;SDS011;59485;43.542;-5.676;2023-04-25T02:40:00;16.85;;;7.80;;
71637;SDS011;59485;43.542;-5.676;2023-04-25T02:42:26;19.40;;;7.80;;
71637;SDS011;59485;43.542;-5.676;2023-04-25T02:44:52;17.15;;;7.30;;
71637;SDS011;59485;43.542;-5.676;2023-04-25T02:47:18;18.48;;;8.23;;
71637;SDS011;59485;43.542;-5.676;2023-04-25T02:49:43;15.63;;;7.67;;
71637;SDS011;59485;43.542;-5.676;2023-04-25T02:52:10;16.30;;;8.02;;
71637;SDS011;59485;43.542;-5.676;2023-04-25T02:54:36;19.77;;;7.97;;
71637;SDS011;59485;43.542;-5.676;2023-04-25T02:57:01;18.03;;;8.13;;
71637;SDS011;59485;43.542;-5.676;2023-04-25T02:59:27;18.63;;;8.70;;
71637;SDS011;59485;43.542;-5.676;2023-04-25T03:01:53;20.85;;;7.65;;
71637;SDS011;59485;43.542;-5.676;2023-04-25T03:04:19;16.53;;;6.77;;
71637;SDS011;59485;43.542;-5.676;2023-04-25T03:06:46;13.63;;;6.32;;
71637;SDS011;59485;43.542;-5.676;2023-04-25T03:09:11;15.85;;;6.72;;
71637;SDS011;59485;43.542;-5.676;2023-04-25T03:11:40;12.95;;;6.53;;
71637;SDS011;59485;43.542;-5.676;2023-04-25T03:14:05;13.47;;;6.43;;
71637;SDS011;59485;43.542;-5.676;2023-04-25T03:16:31;12.70;;;6.80;;
71637;SDS011;59485;43.542;-5.676;2023-04-25T03:18:56;12.30;;;5.82;;
71637;SDS011;59485;43.542;-5.676;2023-04-25T03:23:58;14.40;;;6.80;;
71637;SDS011;59485;43.542;-5.676;2023-04-25T03:29:02;14.30;;;7.22;;
71637;SDS011;59485;43.542;-5.676;2023-04-25T03:33:57;13.15;;;6.03;;
71637;SDS011;59485;43.542;-5.676;2023-04-25T03:36:23;9.80;;;5.67;;
71637;SDS011;59485;43.542;-5.676;2023-04-25T03:38:48;11.88;;;6.10;;
71637;SDS011;59485;43.542;-5.676;2023-04-25T03:41:14;10.47;;;5.70;;
71637;SDS011;59485;43.542;-5.676;2023-04-25T03:43:39;13.63;;;6.17;;
71637;SDS011;59485;43.542;-5.676;2023-04-25T03:46:05;12.68;;;6.30;;
71637;SDS011;59485;43.542;-5.676;2023-04-25T03:48:33;11.40;;;5.77;;
71637;SDS011;59485;43.542;-5.676;2023-04-25T03:51:08;13.68;;;5.72;;
71637;SDS011;59485;43.542;-5.676;2023-04-25T03:53:33;13.38;;;5.60;;
71637;SDS011;59485;43.542;-5.676;2023-04-25T03:56:11;10.60;;;5.37;;
71637;SDS011;59485;43.542;-5.676;2023-04-25T03:58:36;11.90;;;6.18;;
71637;SDS011;59485;43.542;-5.676;2023-04-25T04:01:02;10.63;;;5.90;;
71637;SDS011;59485;43.542;-5.676;2023-04-25T04:03:38;15.85;;;6.82;;
71637;SDS011;59485;43.542;-5.676;2023-04-25T04:06:07;15.38;;;6.78;;
71637;SDS011;59485;43.542;-5.676;2023-04-25T04:08:46;11.73;;;6.30;;
71637;SDS011;59485;43.542;-5.676;2023-04-25T04:11:12;11.75;;;6.45;;
71637;SDS011;59485;43.542;-5.676;2023-04-25T04:13:43;14.43;;;6.70;;
71637;SDS011;59485;43.542;-5.676;2023-04-25T04:16:12;14.20;;;6.73;;
71637;SDS011;59485;43.542;-5.676;2023-04-25T04:18:37;14.18;;;7.65;;
71637;SDS011;59485;43.542;-5.676;2023-04-25T04:21:12;12.20;;;7.07;;
71637;SDS011;59485;43.542;-5.676;2023-04-25T04:26:06;16.95;;;7.55;;
71637;SDS011;59485;43.542;-5.676;2023-04-25T04:28:33;13.80;;;7.30;;
71637;SDS011;59485;43.542;-5.676;2023-04-25T04:31:17;14.30;;;9.05;;
71637;SDS011;59485;43.542;-5.676;2023-04-25T04:33:50;14.33;;;7.40;;
71637;SDS011;59485;43.542;-5.676;2023-04-25T04:39:05;13.65;;;7.55;;
71637;SDS011;59485;43.542;-5.676;2023-04-25T04:41:31;13.45;;;7.30;;
71637;SDS011;59485;43.542;-5.676;2023-04-25T04:43:57;15.10;;;7.53;;
71637;SDS011;59485;43.542;-5.676;2023-04-25T04:48:56;13.20;;;7.10;;
71637;SDS011;59485;43.542;-5.676;2023-04-25T04:51:23;14.17;;;6.87;;
71637;SDS011;59485;43.542;-5.676;2023-04-25T04:53:49;16.52;;;6.70;;
71637;SDS011;59485;43.542;-5.676;2023-04-25T04:56:23;11.98;;;7.65;;
71637;SDS011;59485;43.542;-5.676;2023-04-25T04:58:50;14.73;;;7.40;;
71637;SDS011;59485;43.542;-5.676;2023-04-25T05:01:23;13.18;;;6.80;;
71637;SDS011;59485;43.542;-5.676;2023-04-25T05:03:50;13.15;;;6.47;;
71637;SDS011;59485;43.542;-5.676;2023-04-25T05:06:28;13.43;;;6.15;;
71637;SDS011;59485;43.542;-5.676;2023-04-25T05:08:59;10.60;;;6.03;;
71637;SDS011;59485;43.542;-5.676;2023-04-25T05:11:25;12.20;;;6.40;;
71637;SDS011;59485;43.542;-5.676;2023-04-25T05:13:53;13.60;;;6.82;;
71637;SDS011;59485;43.542;-5.676;2023-04-25T05:16:22;12.77;;;6.03;;
71637;SDS011;59485;43.542;-5.676;2023-04-25T05:18:48;12.30;;;5.60;;
71637;SDS011;59485;43.542;-5.676;2023-04-25T05:21:13;11.40;;;5.97;;
71637;SDS011;59485;43.542;-5.676;2023-04-25T05:23:39;9.43;;;5.53;;
71637;SDS011;59485;43.542;-5.676;2023-04-25T05:26:04;12.57;;;6.87;;
71637;SDS011;59485;43.542;-5.676;2023-04-25T05:28:30;12.98;;;6.50;;
71637;SDS011;59485;43.542;-5.676;2023-04-25T05:30:56;13.23;;;6.10;;
71637;SDS011;59485;43.542;-5.676;2023-04-25T05:33:21;13.20;;;6.25;;
71637;SDS011;59485;43.542;-5.676;2023-04-25T05:35:47;11.60;;;5.70;;
71637;SDS011;59485;43.542;-5.676;2023-04-25T05:38:12;10.60;;;6.10;;
71637;SDS011;59485;43.542;-5.676;2023-04-25T05:40:38;13.40;;;6.43;;
71637;SDS011;59485;43.542;-5.676;2023-04-25T05:43:03;13.40;;;6.57;;
71637;SDS011;59485;43.542;-5.676;2023-04-25T05:45:29;16.30;;;7.23;;
71637;SDS011;59485;43.542;-5.676;2023-04-25T05:47:54;15.87;;;6.90;;
71637;SDS011;59485;43.542;-5.676;2023-04-25T05:50:20;19.93;;;6.63;;
71637;SDS011;59485;43.542;-5.676;2023-04-25T05:52:46;12.50;;;6.43;;
71637;SDS011;59485;43.542;-5.676;2023-04-25T05:55:11;11.63;;;7.40;;
71637;SDS011;59485;43.542;-5.676;2023-04-25T05:57:37;14.17;;;7.20;;
71637;SDS011;59485;43.542;-5.676;2023-04-25T06:00:06;17.27;;;8.50;;
71637;SDS011;59485;43.542;-5.676;2023-04-25T06:02:34;16.13;;;7.50;;
71637;SDS011;59485;43.542;-5.676;2023-04-25T06:05:00;16.67;;;8.30;;
71637;SDS011;59485;43.542;-5.676;2023-04-25T06:07:28;15.50;;;7.80;;
71637;SDS011;59485;43.542;-5.676;2023-04-25T06:09:55;17.25;;;8.30;;
71637;SDS011;59485;43.542;-5.676;2023-04-25T06:12:20;16.50;;;8.10;;
71637;SDS011;59485;43.542;-5.676;2023-04-25T06:14:46;16.03;;;9.10;;
71637;SDS011;59485;43.542;-5.676;2023-04-25T06:17:11;15.27;;;9.13;;
71637;SDS011;59485;43.542;-5.676;2023-04-25T06:19:37;19.52;;;9.32;;
71637;SDS011;59485;43.542;-5.676;2023-04-25T06:22:02;15.90;;;7.90;;
71637;SDS011;59485;43.542;-5.676;2023-04-25T06:24:28;15.07;;;8.07;;
71637;SDS011;59485;43.542;-5.676;2023-04-25T06:26:53;12.27;;;7.13;;
71637;SDS011;59485;43.542;-5.676;2023-04-25T06:29:19;16.57;;;6.67;;
71637;SDS011;59485;43.542;-5.676;2023-04-25T06:31:45;16.88;;;8.30;;
71637;SDS011;59485;43.542;-5.676;2023-04-25T06:34:11;19.90;;;7.50;;
71637;SDS011;59485;43.542;-5.676;2023-04-25T06:36:36;16.23;;;7.60;;
71637;SDS011;59485;43.542;-5.676;2023-04-25T06:39:02;16.70;;;7.87;;
71637;SDS011;59485;43.542;-5.676;2023-04-25T06:41:27;17.33;;;8.00;;
71637;SDS011;59485;43.542;-5.676;2023-04-25T06:43:53;17.40;;;8.07;;
71637;SDS011;59485;43.542;-5.676;2023-04-25T06:46:18;15.97;;;8.20;;
71637;SDS011;59485;43.542;-5.676;2023-04-25T06:48:44;20.47;;;8.57;;
71637;SDS011;59485;43.542;-5.676;2023-04-25T06:51:10;20.27;;;9.05;;
71637;SDS011;59485;43.542;-5.676;2023-04-25T06:53:35;20.47;;;8.30;;
71637;SDS011;59485;43.542;-5.676;2023-04-25T06:56:01;17.55;;;8.07;;
71637;SDS011;59485;43.542;-5.676;2023-04-25T06:58:28;17.25;;;8.70;;
71637;SDS011;59485;43.542;-5.676;2023-04-25T07:00:53;23.20;;;8.40;;
71637;SDS011;59485;43.542;-5.676;2023-04-25T07:03:19;21.50;;;8.60;;
71637;SDS011;59485;43.542;-5.676;2023-04-25T07:05:44;24.15;;;9.98;;
71637;SDS011;59485;43.542;-5.676;2023-04-25T07:08:10;25.77;;;10.43;;
71637;SDS011;59485;43.542;-5.676;2023-04-25T07:10:36;20.87;;;9.33;;
71637;SDS011;59485;43.542;-5.676;2023-04-25T07:13:02;25.33;;;9.57;;
71637;SDS011;59485;43.542;-5.676;2023-04-25T07:15:27;24.30;;;9.80;;
71637;SDS011;59485;43.542;-5.676;2023-04-25T07:17:53;21.07;;;9.00;;
71637;SDS011;59485;43.542;-5.676;2023-04-25T07:20:19;22.38;;;8.95;;
71637;SDS011;59485;43.542;-5.676;2023-04-25T07:22:44;27.37;;;12.13;;
71637;SDS011;59485;43.542;-5.676;2023-04-25T07:25:10;34.08;;;16.38;;
71637;SDS011;59485;43.542;-5.676;2023-04-25T07:27:36;26.57;;;11.93;;
71637;SDS011;59485;43.542;-5.676;2023-04-25T07:30:02;22.40;;;11.50;;
71637;SDS011;59485;43.542;-5.676;2023-04-25T07:32:28;26.35;;;11.02;;
71637;SDS011;59485;43.542;-5.676;2023-04-25T07:34:54;23.90;;;10.67;;
71637;SDS011;59485;43.542;-5.676;2023-04-25T07:37:20;25.40;;;11.93;;
71637;SDS011;59485;43.542;-5.676;2023-04-25T07:39:45;23.03;;;11.03;;
71637;SDS011;59485;43.542;-5.676;2023-04-25T07:42:11;20.58;;;10.75;;
71637;SDS011;59485;43.542;-5.676;2023-04-25T07:44:37;28.70;;;10.60;;
71637;SDS011;59485;43.542;-5.676;2023-04-25T07:47:07;29.73;;;11.38;;
71637;SDS011;59485;43.542;-5.676;2023-04-25T07:49:36;19.48;;;9.80;;
71637;SDS011;59485;43.542;-5.676;2023-04-25T07:52:03;23.25;;;10.50;;
71637;SDS011;59485;43.542;-5.676;2023-04-25T07:54:30;21.27;;;9.80;;
71637;SDS011;59485;43.542;-5.676;2023-04-25T07:56:56;25.97;;;8.73;;
71637;SDS011;59485;43.542;-5.676;2023-04-25T07:59:21;22.88;;;7.90;;
71637;SDS011;59485;43.542;-5.676;2023-04-25T08:01:47;25.50;;;8.43;;
71637;SDS011;59485;43.542;-5.676;2023-04-25T08:04:13;26.15;;;8.50;;
71637;SDS011;59485;43.542;-5.676;2023-04-25T08:06:38;15.63;;;6.07;;
71637;SDS011;59485;43.542;-5.676;2023-04-25T08:09:05;19.33;;;6.63;;
71637;SDS011;59485;43.542;-5.676;2023-04-25T08:11:31;18.95;;;7.20;;
71637;SDS011;59485;43.542;-5.676;2023-04-25T08:13:56;16.50;;;6.23;;
71637;SDS011;59485;43.542;-5.676;2023-04-25T08:16:22;18.23;;;5.20;;
71637;SDS011;59485;43.542;-5.676;2023-04-25T08:18:47;21.50;;;6.53;;
71637;SDS011;59485;43.542;-5.676;2023-04-25T08:21:14;14.30;;;5.80;;
71637;SDS011;59485;43.542;-5.676;2023-04-25T08:23:40;18.30;;;5.25;;
71637;SDS011;59485;43.542;-5.676;2023-04-25T08:26:06;19.77;;;5.70;;
71637;SDS011;59485;43.542;-5.676;2023-04-25T08:28:32;18.63;;;5.03;;
71637;SDS011;59485;43.542;-5.676;2023-04-25T08:30:57;19.00;;;4.63;;
71637;SDS011;59485;43.542;-5.676;2023-04-25T08:33:23;13.90;;;4.50;;
71637;SDS011;59485;43.542;-5.676;2023-04-25T08:35:48;16.47;;;4.87;;
71637;SDS011;59485;43.542;-5.676;2023-04-25T08:38:14;12.57;;;4.35;;
71637;SDS011;59485;43.542;-5.676;2023-04-25T08:40:40;13.77;;;4.27;;
71637;SDS011;59485;43.542;-5.676;2023-04-25T08:43:06;13.07;;;4.10;;
71637;SDS011;59485;43.542;-5.676;2023-04-25T08:45:39;10.02;;;3.90;;
71637;SDS011;59485;43.542;-5.676;2023-04-25T08:48:07;20.50;;;4.47;;
71637;SDS011;59485;43.542;-5.676;2023-04-25T08:50:37;13.88;;;3.78;;
71637;SDS011;59485;43.542;-5.676;2023-04-25T08:53:05;15.20;;;3.40;;
71637;SDS011;59485;43.542;-5.676;2023-04-25T08:55:35;12.50;;;3.40;;
71637;SDS011;59485;43.542;-5.676;2023-04-25T08:58:03;22.23;;;4.07;;
71637;SDS011;59485;43.542;-5.676;2023-04-25T09:00:30;13.57;;;3.10;;
71637;SDS011;59485;43.542;-5.676;2023-04-25T09:02:56;17.00;;;3.40;;
71637;SDS011;59485;43.542;-5.676;2023-04-25T09:05:23;10.80;;;2.97;;
71637;SDS011;59485;43.542;-5.676;2023-04-25T09:07:49;12.32;;;3.15;;
71637;SDS011;59485;43.542;-5.676;2023-04-25T09:10:15;11.90;;;3.17;;
71637;SDS011;59485;43.542;-5.676;2023-04-25T09:12:40;8.73;;;2.83;;
71637;SDS011;59485;43.542;-5.676;2023-04-25T09:15:07;8.43;;;2.55;;
71637;SDS011;59485;43.542;-5.676;2023-04-25T09:17:34;11.20;;;3.38;;
71637;SDS011;59485;43.542;-5.676;2023-04-25T09:20:14;6.30;;;2.58;;
71637;SDS011;59485;43.542;-5.676;2023-04-25T09:22:40;11.37;;;3.23;;
71637;SDS011;59485;43.542;-5.676;2023-04-25T09:27:36;13.07;;;3.08;;
71637;SDS011;59485;43.542;-5.676;2023-04-25T09:30:02;10.17;;;3.57;;
71637;SDS011;59485;43.542;-5.676;2023-04-25T09:32:31;7.97;;;3.17;;
71637;SDS011;59485;43.542;-5.676;2023-04-25T09:34:57;9.40;;;2.73;;
71637;SDS011;59485;43.542;-5.676;2023-04-25T09:37:27;9.48;;;2.60;;
71637;SDS011;59485;43.542;-5.676;2023-04-25T09:39:55;10.65;;;2.42;;
71637;SDS011;59485;43.542;-5.676;2023-04-25T09:42:22;9.68;;;3.25;;
71637;SDS011;59485;43.542;-5.676;2023-04-25T09:44:49;10.37;;;2.77;;
71637;SDS011;59485;43.542;-5.676;2023-04-25T09:47:18;9.85;;;2.63;;
71637;SDS011;59485;43.542;-5.676;2023-04-25T09:49:46;10.35;;;2.25;;
71637;SDS011;59485;43.542;-5.676;2023-04-25T09:52:16;10.00;;;3.30;;
71637;SDS011;59485;43.542;-5.676;2023-04-25T09:54:47;9.85;;;2.70;;
71637;SDS011;59485;43.542;-5.676;2023-04-25T09:57:18;8.70;;;3.00;;
71637;SDS011;59485;43.542;-5.676;2023-04-25T09:59:48;9.80;;;3.25;;
71637;SDS011;59485;43.542;-5.676;2023-04-25T10:02:16;7.72;;;2.90;;
71637;SDS011;59485;43.542;-5.676;2023-04-25T10:04:49;9.35;;;2.70;;
71637;SDS011;59485;43.542;-5.676;2023-04-25T10:07:18;8.07;;;2.67;;
71637;SDS011;59485;43.542;-5.676;2023-04-25T10:09:49;10.80;;;2.67;;
71637;SDS011;59485;43.542;-5.676;2023-04-25T10:12:20;11.07;;;3.17;;
71637;SDS011;59485;43.542;-5.676;2023-04-25T10:14:46;9.48;;;3.53;;
71637;SDS011;59485;43.542;-5.676;2023-04-25T10:17:13;11.95;;;3.05;;
71637;SDS011;59485;43.542;-5.676;2023-04-25T10:19:39;8.50;;;3.05;;
71637;SDS011;59485;43.542;-5.676;2023-04-25T10:22:08;14.77;;;4.33;;
71637;SDS011;59485;43.542;-5.676;2023-04-25T10:24:39;8.90;;;2.88;;
71637;SDS011;59485;43.542;-5.676;2023-04-25T10:27:06;12.10;;;3.10;;
71637;SDS011;59485;43.542;-5.676;2023-04-25T10:29:32;8.20;;;2.97;;
71637;SDS011;59485;43.542;-5.676;2023-04-25T10:31:58;8.80;;;3.30;;
71637;SDS011;59485;43.542;-5.676;2023-04-25T10:34:24;10.63;;;2.93;;
71637;SDS011;59485;43.542;-5.676;2023-04-25T10:37:03;8.95;;;3.22;;
71637;SDS011;59485;43.542;-5.676;2023-04-25T10:39:29;11.00;;;3.13;;
71637;SDS011;59485;43.542;-5.676;2023-04-25T10:41:56;10.07;;;3.20;;
71637;SDS011;59485;43.542;-5.676;2023-04-25T10:44:25;11.77;;;3.33;;
71637;SDS011;59485;43.542;-5.676;2023-04-25T10:46:51;12.05;;;3.42;;
71637;SDS011;59485;43.542;-5.676;2023-04-25T10:49:50;12.60;;;2.80;;
71637;SDS011;59485;43.542;-5.676;2023-04-25T10:54:52;10.23;;;3.07;;
71637;SDS011;59485;43.542;-5.676;2023-04-25T11:02:41;7.63;;;3.40;;
71637;SDS011;59485;43.542;-5.676;2023-04-25T11:08:00;13.67;;;4.57;;
71637;SDS011;59485;43.542;-5.676;2023-04-25T11:10:26;12.77;;;2.92;;
71637;SDS011;59485;43.542;-5.676;2023-04-25T11:12:52;11.27;;;3.15;;
71637;SDS011;59485;43.542;-5.676;2023-04-25T11:15:18;10.37;;;3.17;;
71637;SDS011;59485;43.542;-5.676;2023-04-25T11:17:43;9.77;;;2.55;;
71637;SDS011;59485;43.542;-5.676;2023-04-25T11:20:11;12.38;;;3.53;;
71637;SDS011;59485;43.542;-5.676;2023-04-25T11:22:39;13.93;;;3.30;;
71637;SDS011;59485;43.542;-5.676;2023-04-25T11:25:09;11.13;;;3.60;;
71637;SDS011;59485;43.542;-5.676;2023-04-25T11:27:48;14.45;;;3.88;;
71637;SDS011;59485;43.542;-5.676;2023-04-25T11:30:15;11.23;;;3.28;;
71637;SDS011;59485;43.542;-5.676;2023-04-25T11:32:41;8.38;;;3.30;;
71637;SDS011;59485;43.542;-5.676;2023-04-25T11:35:10;11.23;;;3.60;;
71637;SDS011;59485;43.542;-5.676;2023-04-25T11:37:36;11.25;;;2.97;;
71637;SDS011;59485;43.542;-5.676;2023-04-25T11:40:04;9.07;;;2.95;;
71637;SDS011;59485;43.542;-5.676;2023-04-25T11:42:36;10.97;;;2.67;;
71637;SDS011;59485;43.542;-5.676;2023-04-25T11:45:08;9.38;;;2.92;;
71637;SDS011;59485;43.542;-5.676;2023-04-25T11:47:34;8.85;;;3.85;;
71637;SDS011;59485;43.542;-5.676;2023-04-25T11:50:01;9.52;;;3.08;;
71637;SDS011;59485;43.542;-5.676;2023-04-25T11:52:44;8.77;;;2.50;;
71637;SDS011;59485;43.542;-5.676;2023-04-25T11:55:15;10.27;;;2.78;;
71637;SDS011;59485;43.542;-5.676;2023-04-25T11:57:41;12.68;;;3.00;;
71637;SDS011;59485;43.542;-5.676;2023-04-25T12:00:08;9.25;;;2.50;;
71637;SDS011;59485;43.542;-5.676;2023-04-25T12:02:45;8.10;;;2.50;;
71637;SDS011;59485;43.542;-5.676;2023-04-25T12:05:13;9.73;;;2.23;;
71637;SDS011;59485;43.542;-5.676;2023-04-25T12:07:41;9.43;;;2.22;;
71637;SDS011;59485;43.542;-5.676;2023-04-25T12:10:08;9.88;;;2.03;;
71637;SDS011;59485;43.542;-5.676;2023-04-25T12:15:23;9.70;;;2.78;;
71637;SDS011;59485;43.542;-5.676;2023-04-25T12:17:52;10.73;;;2.40;;
71637;SDS011;59485;43.542;-5.676;2023-04-25T12:20:23;8.70;;;2.15;;
71637;SDS011;59485;43.542;-5.676;2023-04-25T12:25:38;9.57;;;2.63;;
71637;SDS011;59485;43.542;-5.676;2023-04-25T12:28:13;11.07;;;2.90;;
71637;SDS011;59485;43.542;-5.676;2023-04-25T12:33:31;11.20;;;2.75;;
71637;SDS011;59485;43.542;-5.676;2023-04-25T12:35:58;8.82;;;2.78;;
71637;SDS011;59485;43.542;-5.676;2023-04-25T12:38:28;7.60;;;2.80;;
71637;SDS011;59485;43.542;-5.676;2023-04-25T12:40:56;8.98;;;2.50;;
71637;SDS011;59485;43.542;-5.676;2023-04-25T12:43:23;9.13;;;2.47;;
71637;SDS011;59485;43.542;-5.676;2023-04-25T12:45:49;10.57;;;3.25;;
71637;SDS011;59485;43.542;-5.676;2023-04-25T12:48:16;10.68;;;3.17;;
71637;SDS011;59485;43.542;-5.676;2023-04-25T12:50:42;8.20;;;2.83;;
71637;SDS011;59485;43.542;-5.676;2023-04-25T12:53:08;10.30;;;2.30;;
71637;SDS011;59485;43.542;-5.676;2023-04-25T12:55:34;9.63;;;2.88;;
71637;SDS011;59485;43.542;-5.676;2023-04-25T12:58:00;8.13;;;2.60;;
71637;SDS011;59485;43.542;-5.676;2023-04-25T13:00:25;22.73;;;10.70;;
71637;SDS011;59485;43.542;-5.676;2023-04-25T13:02:51;16.58;;;6.85;;
71637;SDS011;59485;43.542;-5.676;2023-04-25T13:12:57;10.27;;;4.60;;
71637;SDS011;59485;43.542;-5.676;2023-04-25T13:15:23;13.85;;;4.97;;
71637;SDS011;59485;43.542;-5.676;2023-04-25T13:17:54;8.63;;;2.47;;
71637;SDS011;59485;43.542;-5.676;2023-04-25T13:20:20;10.57;;;2.20;;
71637;SDS011;59485;43.542;-5.676;2023-04-25T13:22:47;9.65;;;2.22;;
71637;SDS011;59485;43.542;-5.676;2023-04-25T13:25:13;6.57;;;2.37;;
71637;SDS011;59485;43.542;-5.676;2023-04-25T13:27:38;6.73;;;2.30;;
71637;SDS011;59485;43.542;-5.676;2023-04-25T13:30:05;5.63;;;2.20;;
71637;SDS011;59485;43.542;-5.676;2023-04-25T13:32:35;11.52;;;3.17;;
71637;SDS011;59485;43.542;-5.676;2023-04-25T13:35:04;10.32;;;3.28;;
71637;SDS011;59485;43.542;-5.676;2023-04-25T13:37:31;8.88;;;2.80;;
71637;SDS011;59485;43.542;-5.676;2023-04-25T13:40:01;7.27;;;2.40;;
71637;SDS011;59485;43.542;-5.676;2023-04-25T13:42:30;8.85;;;2.78;;
71637;SDS011;59485;43.542;-5.676;2023-04-25T13:44:56;5.85;;;2.33;;
71637;SDS011;59485;43.542;-5.676;2023-04-25T13:47:22;8.80;;;2.57;;
71637;SDS011;59485;43.542;-5.676;2023-04-25T13:49:48;12.00;;;2.25;;
71637;SDS011;59485;43.542;-5.676;2023-04-25T13:52:14;8.55;;;2.90;;
71637;SDS011;59485;43.542;-5.676;2023-04-25T13:54:40;8.60;;;2.17;;
71637;SDS011;59485;43.542;-5.676;2023-04-25T13:57:05;8.32;;;2.75;;
71637;SDS011;59485;43.542;-5.676;2023-04-25T13:59:31;10.23;;;2.58;;
71637;SDS011;59485;43.542;-5.676;2023-04-25T14:01:57;14.70;;;3.37;;
71637;SDS011;59485;43.542;-5.676;2023-04-25T14:04:23;10.00;;;2.63;;
71637;SDS011;59485;43.542;-5.676;2023-04-25T14:06:50;9.75;;;2.72;;
71637;SDS011;59485;43.542;-5.676;2023-04-25T14:09:16;8.73;;;2.47;;
71637;SDS011;59485;43.542;-5.676;2023-04-25T14:14:10;8.37;;;2.60;;
71637;SDS011;59485;43.542;-5.676;2023-04-25T14:16:37;10.20;;;2.50;;
71637;SDS011;59485;43.542;-5.676;2023-04-25T14:19:03;11.50;;;2.97;;
71637;SDS011;59485;43.542;-5.676;2023-04-25T14:21:37;8.63;;;2.50;;
71637;SDS011;59485;43.542;-5.676;2023-04-25T14:24:03;12.32;;;3.00;;
71637;SDS011;59485;43.542;-5.676;2023-04-25T14:26:30;9.35;;;2.30;;
71637;SDS011;59485;43.542;-5.676;2023-04-25T14:28:55;7.70;;;2.27;;
71637;SDS011;59485;43.542;-5.676;2023-04-25T14:31:21;7.67;;;2.17;;
71637;SDS011;59485;43.542;-5.676;2023-04-25T14:33:47;8.23;;;2.27;;
71637;SDS011;59485;43.542;-5.676;2023-04-25T14:36:12;9.00;;;2.33;;
71637;SDS011;59485;43.542;-5.676;2023-04-25T14:38:39;8.37;;;2.20;;
71637;SDS011;59485;43.542;-5.676;2023-04-25T14:41:04;9.57;;;2.35;;
71637;SDS011;59485;43.542;-5.676;2023-04-25T14:43:30;7.65;;;2.38;;
71637;SDS011;59485;43.542;-5.676;2023-04-25T14:48:26;8.15;;;2.53;;
71637;SDS011;59485;43.542;-5.676;2023-04-25T14:50:51;7.13;;;2.50;;
71637;SDS011;59485;43.542;-5.676;2023-04-25T14:53:23;5.50;;;1.80;;
71637;SDS011;59485;43.542;-5.676;2023-04-25T14:58:15;8.60;;;3.13;;
71637;SDS011;59485;43.542;-5.676;2023-04-25T15:00:56;9.23;;;2.45;;
71637;SDS011;59485;43.542;-5.676;2023-04-25T15:03:21;9.48;;;3.08;;
71637;SDS011;59485;43.542;-5.676;2023-04-25T15:05:47;9.63;;;2.70;;
71637;SDS011;59485;43.542;-5.676;2023-04-25T15:08:25;12.65;;;2.63;;
71637;SDS011;59485;43.542;-5.676;2023-04-25T15:10:51;16.45;;;3.95;;
71637;SDS011;59485;43.542;-5.676;2023-04-25T15:13:17;12.83;;;3.10;;
71637;SDS011;59485;43.542;-5.676;2023-04-25T15:15:44;8.50;;;2.10;;